sensor_id;sensor_type;location;lat;lon;timestamp;P1;durP1;ratioP1;P2;durP2;ratioP2
22634;SDS011;11484;50.858;4.384;2023-03-01T00:02:02;13.18;;;8.52;;
22634;SDS011;11484;50.858;4.384;2023-03-01T00:04:29;14.18;;;8.90;;
22634;SDS011;11484;50.858;4.384;2023-03-01T00:06:55;11.02;;;8.45;;
22634;SDS011;11484;50.858;4.384;2023-03-01T00:09:21;11.40;;;9.00;;
22634;SDS011;11484;50.858;4.384;2023-03-01T00:11:47;10.68;;;7.53;;
22634;SDS011;11484;50.858;4.384;2023-03-01T00:14:13;11.93;;;8.25;;
22634;SDS011;11484;50.858;4.384;2023-03-01T00:16:41;12.25;;;8.77;;
22634;SDS011;11484;50.858;4.384;2023-03-01T00:19:15;11.18;;;8.30;;
22634;SDS011;11484;50.858;4.384;2023-03-01T00:21:42;12.85;;;8.75;;
22634;SDS011;11484;50.858;4.384;2023-03-01T00:24:09;11.95;;;8.55;;
22634;SDS011;11484;50.858;4.384;2023-03-01T00:26:35;10.57;;;8.23;;
22634;SDS011;11484;50.858;4.384;2023-03-01T00:29:05;10.03;;;7.97;;
22634;SDS011;11484;50.858;4.384;2023-03-01T00:31:32;11.25;;;8.13;;
22634;SDS011;11484;50.858;4.384;2023-03-01T00:34:02;10.52;;;8.57;;
22634;SDS011;11484;50.858;4.384;2023-03-01T00:36:34;9.95;;;8.63;;
22634;SDS011;11484;50.858;4.384;2023-03-01T00:39:01;11.85;;;8.93;;
22634;SDS011;11484;50.858;4.384;2023-03-01T00:41:28;9.43;;;7.95;;
22634;SDS011;11484;50.858;4.384;2023-03-01T00:43:54;11.52;;;8.45;;
22634;SDS011;11484;50.858;4.384;2023-03-01T00:46:21;10.68;;;8.60;;
22634;SDS011;11484;50.858;4.384;2023-03-01T00:48:49;11.00;;;8.38;;
22634;SDS011;11484;50.858;4.384;2023-03-01T00:51:15;11.45;;;8.57;;
22634;SDS011;11484;50.858;4.384;2023-03-01T00:53:43;12.65;;;8.45;;
22634;SDS011;11484;50.858;4.384;2023-03-01T00:56:11;13.75;;;8.35;;
22634;SDS011;11484;50.858;4.384;2023-03-01T00:58:38;10.13;;;8.35;;
22634;SDS011;11484;50.858;4.384;2023-03-01T01:01:09;11.57;;;8.25;;
22634;SDS011;11484;50.858;4.384;2023-03-01T01:03:52;8.70;;;6.82;;
22634;SDS011;11484;50.858;4.384;2023-03-01T01:06:27;10.52;;;8.05;;
22634;SDS011;11484;50.858;4.384;2023-03-01T01:09:00;11.50;;;8.45;;
22634;SDS011;11484;50.858;4.384;2023-03-01T01:11:28;13.98;;;9.20;;
22634;SDS011;11484;50.858;4.384;2023-03-01T01:13:55;12.05;;;8.43;;
22634;SDS011;11484;50.858;4.384;2023-03-01T01:16:21;11.38;;;8.45;;
22634;SDS011;11484;50.858;4.384;2023-03-01T01:18:49;10.80;;;8.05;;
22634;SDS011;11484;50.858;4.384;2023-03-01T01:21:16;13.13;;;9.07;;
22634;SDS011;11484;50.858;4.384;2023-03-01T01:23:45;11.15;;;8.18;;
22634;SDS011;11484;50.858;4.384;2023-03-01T01:26:12;13.07;;;8.65;;
22634;SDS011;11484;50.858;4.384;2023-03-01T01:28:44;12.57;;;8.82;;
22634;SDS011;11484;50.858;4.384;2023-03-01T01:31:10;11.20;;;8.57;;
22634;SDS011;11484;50.858;4.384;2023-03-01T01:33:36;11.75;;;8.73;;
22634;SDS011;11484;50.858;4.384;2023-03-01T01:36:02;11.48;;;8.48;;
22634;SDS011;11484;50.858;4.384;2023-03-01T01:38:29;12.07;;;7.93;;
22634;SDS011;11484;50.858;4.384;2023-03-01T01:40:55;12.00;;;8.77;;
22634;SDS011;11484;50.858;4.384;2023-03-01T01:45:46;12.73;;;8.55;;
22634;SDS011;11484;50.858;4.384;2023-03-01T01:48:13;12.10;;;8.18;;
22634;SDS011;11484;50.858;4.384;2023-03-01T01:50:43;11.93;;;8.13;;
22634;SDS011;11484;50.858;4.384;2023-03-01T01:53:11;11.85;;;8.57;;
22634;SDS011;11484;50.858;4.384;2023-03-01T01:55:43;13.55;;;8.48;;
22634;SDS011;11484;50.858;4.384;2023-03-01T02:00:40;10.18;;;7.90;;
22634;SDS011;11484;50.858;4.384;2023-03-01T02:03:08;11.00;;;8.23;;
22634;SDS011;11484;50.858;4.384;2023-03-01T02:08:08;11.98;;;8.35;;
22634;SDS011;11484;50.858;4.384;2023-03-01T02:10:36;11.93;;;8.23;;
22634;SDS011;11484;50.858;4.384;2023-03-01T02:13:03;12.23;;;8.00;;
22634;SDS011;11484;50.858;4.384;2023-03-01T02:15:35;13.30;;;8.63;;
22634;SDS011;11484;50.858;4.384;2023-03-01T02:18:02;13.13;;;8.75;;
22634;SDS011;11484;50.858;4.384;2023-03-01T02:20:33;12.52;;;8.30;;
22634;SDS011;11484;50.858;4.384;2023-03-01T02:23:00;12.68;;;8.43;;
22634;SDS011;11484;50.858;4.384;2023-03-01T02:25:39;11.38;;;8.10;;
22634;SDS011;11484;50.858;4.384;2023-03-01T02:30:41;12.05;;;8.05;;
22634;SDS011;11484;50.858;4.384;2023-03-01T02:33:28;12.05;;;8.07;;
22634;SDS011;11484;50.858;4.384;2023-03-01T02:36:01;12.45;;;8.80;;
22634;SDS011;11484;50.858;4.384;2023-03-01T02:38:31;11.32;;;7.75;;
22634;SDS011;11484;50.858;4.384;2023-03-01T02:40:57;12.73;;;8.45;;
22634;SDS011;11484;50.858;4.384;2023-03-01T02:43:24;11.30;;;8.38;;
22634;SDS011;11484;50.858;4.384;2023-03-01T02:45:53;12.90;;;7.93;;
22634;SDS011;11484;50.858;4.384;2023-03-01T02:48:23;12.85;;;8.45;;
22634;SDS011;11484;50.858;4.384;2023-03-01T02:53:34;11.85;;;8.82;;
22634;SDS011;11484;50.858;4.384;2023-03-01T02:56:07;12.23;;;8.20;;
22634;SDS011;11484;50.858;4.384;2023-03-01T02:58:38;9.90;;;8.25;;
22634;SDS011;11484;50.858;4.384;2023-03-01T03:01:10;13.40;;;8.80;;
22634;SDS011;11484;50.858;4.384;2023-03-01T03:03:36;11.55;;;8.55;;
22634;SDS011;11484;50.858;4.384;2023-03-01T03:06:02;12.20;;;8.75;;
22634;SDS011;11484;50.858;4.384;2023-03-01T03:08:27;10.13;;;7.97;;
22634;SDS011;11484;50.858;4.384;2023-03-01T03:10:53;12.15;;;8.40;;
22634;SDS011;11484;50.858;4.384;2023-03-01T03:13:19;11.45;;;8.23;;
22634;SDS011;11484;50.858;4.384;2023-03-01T03:15:47;13.05;;;8.27;;
22634;SDS011;11484;50.858;4.384;2023-03-01T03:18:13;12.65;;;8.30;;
22634;SDS011;11484;50.858;4.384;2023-03-01T03:20:41;12.02;;;8.02;;
22634;SDS011;11484;50.858;4.384;2023-03-01T03:23:07;12.02;;;8.45;;
22634;SDS011;11484;50.858;4.384;2023-03-01T03:25:33;9.95;;;8.00;;
22634;SDS011;11484;50.858;4.384;2023-03-01T03:28:02;12.95;;;8.55;;
22634;SDS011;11484;50.858;4.384;2023-03-01T03:30:35;10.70;;;8.40;;
22634;SDS011;11484;50.858;4.384;2023-03-01T03:33:04;13.82;;;8.40;;
22634;SDS011;11484;50.858;4.384;2023-03-01T03:35:34;12.10;;;8.63;;
22634;SDS011;11484;50.858;4.384;2023-03-01T03:38:06;12.45;;;8.65;;
22634;SDS011;11484;50.858;4.384;2023-03-01T03:40:40;12.38;;;8.52;;
22634;SDS011;11484;50.858;4.384;2023-03-01T03:43:08;15.38;;;9.02;;
22634;SDS011;11484;50.858;4.384;2023-03-01T03:45:37;10.43;;;8.13;;
22634;SDS011;11484;50.858;4.384;2023-03-01T03:48:04;10.93;;;8.40;;
22634;SDS011;11484;50.858;4.384;2023-03-01T03:50:31;11.35;;;8.77;;
22634;SDS011;11484;50.858;4.384;2023-03-01T03:52:57;11.68;;;8.48;;
22634;SDS011;11484;50.858;4.384;2023-03-01T03:55:25;12.07;;;8.30;;
22634;SDS011;11484;50.858;4.384;2023-03-01T03:57:56;12.13;;;8.68;;
22634;SDS011;11484;50.858;4.384;2023-03-01T04:00:26;11.95;;;8.77;;
22634;SDS011;11484;50.858;4.384;2023-03-01T04:02:51;13.30;;;9.52;;
22634;SDS011;11484;50.858;4.384;2023-03-01T04:05:21;11.90;;;8.65;;
22634;SDS011;11484;50.858;4.384;2023-03-01T04:07:47;12.98;;;9.35;;
22634;SDS011;11484;50.858;4.384;2023-03-01T04:10:15;14.07;;;9.73;;
22634;SDS011;11484;50.858;4.384;2023-03-01T04:12:42;12.38;;;8.23;;
22634;SDS011;11484;50.858;4.384;2023-03-01T04:15:08;12.80;;;9.32;;
22634;SDS011;11484;50.858;4.384;2023-03-01T04:17:42;12.55;;;9.32;;
22634;SDS011;11484;50.858;4.384;2023-03-01T04:20:09;13.10;;;9.05;;
22634;SDS011;11484;50.858;4.384;2023-03-01T04:22:37;10.93;;;8.75;;
22634;SDS011;11484;50.858;4.384;2023-03-01T04:25:03;14.43;;;9.73;;
22634;SDS011;11484;50.858;4.384;2023-03-01T04:27:32;14.57;;;9.20;;
22634;SDS011;11484;50.858;4.384;2023-03-01T04:29:58;12.73;;;9.40;;
22634;SDS011;11484;50.858;4.384;2023-03-01T04:32:24;13.45;;;8.50;;
22634;SDS011;11484;50.858;4.384;2023-03-01T04:34:49;12.15;;;8.55;;
22634;SDS011;11484;50.858;4.384;2023-03-01T04:37:15;13.20;;;9.35;;
22634;SDS011;11484;50.858;4.384;2023-03-01T04:39:41;12.15;;;8.95;;
22634;SDS011;11484;50.858;4.384;2023-03-01T04:42:14;12.70;;;9.02;;
22634;SDS011;11484;50.858;4.384;2023-03-01T04:44:40;15.25;;;9.15;;
22634;SDS011;11484;50.858;4.384;2023-03-01T04:47:06;11.93;;;8.80;;
22634;SDS011;11484;50.858;4.384;2023-03-01T04:49:31;12.70;;;8.35;;
22634;SDS011;11484;50.858;4.384;2023-03-01T04:51:57;11.45;;;8.60;;
22634;SDS011;11484;50.858;4.384;2023-03-01T04:54:26;11.73;;;8.93;;
22634;SDS011;11484;50.858;4.384;2023-03-01T04:56:53;13.73;;;8.48;;
22634;SDS011;11484;50.858;4.384;2023-03-01T04:59:19;13.75;;;8.80;;
22634;SDS011;11484;50.858;4.384;2023-03-01T05:01:47;15.70;;;9.10;;
22634;SDS011;11484;50.858;4.384;2023-03-01T05:04:13;15.30;;;9.50;;
22634;SDS011;11484;50.858;4.384;2023-03-01T05:06:40;13.32;;;9.02;;
22634;SDS011;11484;50.858;4.384;2023-03-01T05:09:05;15.43;;;9.35;;
22634;SDS011;11484;50.858;4.384;2023-03-01T05:11:31;12.90;;;9.32;;
22634;SDS011;11484;50.858;4.384;2023-03-01T05:14:07;15.55;;;9.23;;
22634;SDS011;11484;50.858;4.384;2023-03-01T05:16:34;12.63;;;8.48;;
22634;SDS011;11484;50.858;4.384;2023-03-01T05:19:01;17.58;;;9.15;;
22634;SDS011;11484;50.858;4.384;2023-03-01T05:21:36;14.18;;;9.60;;
22634;SDS011;11484;50.858;4.384;2023-03-01T05:24:26;13.80;;;9.27;;
22634;SDS011;11484;50.858;4.384;2023-03-01T05:26:52;11.52;;;8.68;;
22634;SDS011;11484;50.858;4.384;2023-03-01T05:29:19;13.55;;;8.48;;
22634;SDS011;11484;50.858;4.384;2023-03-01T05:31:56;16.83;;;9.70;;
22634;SDS011;11484;50.858;4.384;2023-03-01T05:34:24;15.40;;;9.93;;
22634;SDS011;11484;50.858;4.384;2023-03-01T05:36:51;15.98;;;8.95;;
22634;SDS011;11484;50.858;4.384;2023-03-01T05:39:21;15.02;;;9.23;;
22634;SDS011;11484;50.858;4.384;2023-03-01T05:41:48;19.17;;;9.88;;
22634;SDS011;11484;50.858;4.384;2023-03-01T05:44:17;13.00;;;9.00;;
22634;SDS011;11484;50.858;4.384;2023-03-01T05:46:43;14.55;;;9.55;;
22634;SDS011;11484;50.858;4.384;2023-03-01T05:49:09;12.90;;;9.48;;
22634;SDS011;11484;50.858;4.384;2023-03-01T05:51:36;11.98;;;8.68;;
22634;SDS011;11484;50.858;4.384;2023-03-01T05:54:01;12.95;;;8.77;;
22634;SDS011;11484;50.858;4.384;2023-03-01T05:56:27;13.02;;;9.25;;
22634;SDS011;11484;50.858;4.384;2023-03-01T05:58:54;13.70;;;9.68;;
22634;SDS011;11484;50.858;4.384;2023-03-01T06:01:19;13.40;;;9.30;;
22634;SDS011;11484;50.858;4.384;2023-03-01T06:03:45;14.70;;;9.38;;
22634;SDS011;11484;50.858;4.384;2023-03-01T06:06:11;13.60;;;9.52;;
22634;SDS011;11484;50.858;4.384;2023-03-01T06:08:36;13.70;;;8.98;;
22634;SDS011;11484;50.858;4.384;2023-03-01T06:11:02;14.15;;;9.25;;
22634;SDS011;11484;50.858;4.384;2023-03-01T06:13:28;13.13;;;9.00;;
22634;SDS011;11484;50.858;4.384;2023-03-01T06:15:54;13.57;;;9.45;;
22634;SDS011;11484;50.858;4.384;2023-03-01T06:18:20;14.40;;;9.20;;
22634;SDS011;11484;50.858;4.384;2023-03-01T06:20:51;15.70;;;9.85;;
22634;SDS011;11484;50.858;4.384;2023-03-01T06:23:18;13.07;;;9.07;;
22634;SDS011;11484;50.858;4.384;2023-03-01T06:25:44;12.73;;;9.00;;
22634;SDS011;11484;50.858;4.384;2023-03-01T06:28:09;13.52;;;9.43;;
22634;SDS011;11484;50.858;4.384;2023-03-01T06:30:35;16.25;;;9.75;;
22634;SDS011;11484;50.858;4.384;2023-03-01T06:33:01;13.90;;;8.60;;
22634;SDS011;11484;50.858;4.384;2023-03-01T06:35:28;14.60;;;9.43;;
22634;SDS011;11484;50.858;4.384;2023-03-01T06:37:55;12.65;;;9.35;;
22634;SDS011;11484;50.858;4.384;2023-03-01T06:40:21;14.02;;;9.35;;
22634;SDS011;11484;50.858;4.384;2023-03-01T06:42:47;15.18;;;9.35;;
22634;SDS011;11484;50.858;4.384;2023-03-01T06:45:14;14.32;;;8.80;;
22634;SDS011;11484;50.858;4.384;2023-03-01T06:47:40;16.80;;;9.85;;
22634;SDS011;11484;50.858;4.384;2023-03-01T06:50:06;13.57;;;9.57;;
22634;SDS011;11484;50.858;4.384;2023-03-01T06:52:32;15.50;;;9.10;;
22634;SDS011;11484;50.858;4.384;2023-03-01T06:54:58;14.55;;;9.68;;
22634;SDS011;11484;50.858;4.384;2023-03-01T06:57:23;13.23;;;8.85;;
22634;SDS011;11484;50.858;4.384;2023-03-01T06:59:49;16.52;;;9.52;;
22634;SDS011;11484;50.858;4.384;2023-03-01T07:02:15;13.80;;;8.45;;
22634;SDS011;11484;50.858;4.384;2023-03-01T07:04:41;15.45;;;9.85;;
22634;SDS011;11484;50.858;4.384;2023-03-01T07:07:07;15.32;;;9.20;;
22634;SDS011;11484;50.858;4.384;2023-03-01T07:09:33;14.48;;;9.30;;
22634;SDS011;11484;50.858;4.384;2023-03-01T07:11:59;15.10;;;8.73;;
22634;SDS011;11484;50.858;4.384;2023-03-01T07:14:25;14.77;;;9.63;;
22634;SDS011;11484;50.858;4.384;2023-03-01T07:16:51;15.80;;;9.27;;
22634;SDS011;11484;50.858;4.384;2023-03-01T07:19:17;16.10;;;9.20;;
22634;SDS011;11484;50.858;4.384;2023-03-01T07:21:43;20.42;;;9.57;;
22634;SDS011;11484;50.858;4.384;2023-03-01T07:24:08;12.77;;;9.73;;
22634;SDS011;11484;50.858;4.384;2023-03-01T07:26:34;13.27;;;9.20;;
22634;SDS011;11484;50.858;4.384;2023-03-01T07:29:01;18.80;;;10.68;;
22634;SDS011;11484;50.858;4.384;2023-03-01T07:31:28;13.57;;;8.80;;
22634;SDS011;11484;50.858;4.384;2023-03-01T07:33:54;14.32;;;9.02;;
22634;SDS011;11484;50.858;4.384;2023-03-01T07:36:20;11.82;;;9.25;;
22634;SDS011;11484;50.858;4.384;2023-03-01T07:38:46;13.38;;;9.45;;
22634;SDS011;11484;50.858;4.384;2023-03-01T07:41:12;14.15;;;9.57;;
22634;SDS011;11484;50.858;4.384;2023-03-01T07:43:38;14.35;;;9.18;;
22634;SDS011;11484;50.858;4.384;2023-03-01T07:46:04;11.77;;;8.70;;
22634;SDS011;11484;50.858;4.384;2023-03-01T07:48:30;12.80;;;9.32;;
22634;SDS011;11484;50.858;4.384;2023-03-01T07:51:00;12.07;;;9.50;;
22634;SDS011;11484;50.858;4.384;2023-03-01T07:58:38;11.63;;;8.25;;
22634;SDS011;11484;50.858;4.384;2023-03-01T08:01:06;13.38;;;8.80;;
22634;SDS011;11484;50.858;4.384;2023-03-01T08:03:33;12.65;;;9.20;;
22634;SDS011;11484;50.858;4.384;2023-03-01T08:06:00;15.50;;;9.18;;
22634;SDS011;11484;50.858;4.384;2023-03-01T08:08:28;14.88;;;9.82;;
22634;SDS011;11484;50.858;4.384;2023-03-01T08:10:57;11.23;;;8.63;;
22634;SDS011;11484;50.858;4.384;2023-03-01T08:13:24;13.90;;;9.07;;
22634;SDS011;11484;50.858;4.384;2023-03-01T08:15:50;15.57;;;9.70;;
22634;SDS011;11484;50.858;4.384;2023-03-01T08:18:16;13.73;;;9.23;;
22634;SDS011;11484;50.858;4.384;2023-03-01T08:20:43;13.90;;;9.50;;
22634;SDS011;11484;50.858;4.384;2023-03-01T08:23:09;17.48;;;10.15;;
22634;SDS011;11484;50.858;4.384;2023-03-01T08:25:35;16.40;;;10.10;;
22634;SDS011;11484;50.858;4.384;2023-03-01T08:28:01;16.73;;;10.38;;
22634;SDS011;11484;50.858;4.384;2023-03-01T08:30:26;14.10;;;9.88;;
22634;SDS011;11484;50.858;4.384;2023-03-01T08:32:52;12.40;;;8.98;;
22634;SDS011;11484;50.858;4.384;2023-03-01T08:35:18;14.00;;;9.70;;
22634;SDS011;11484;50.858;4.384;2023-03-01T08:37:45;15.35;;;10.45;;
22634;SDS011;11484;50.858;4.384;2023-03-01T08:40:10;17.45;;;10.02;;
22634;SDS011;11484;50.858;4.384;2023-03-01T08:42:38;16.58;;;9.80;;
22634;SDS011;11484;50.858;4.384;2023-03-01T08:45:05;13.95;;;9.95;;
22634;SDS011;11484;50.858;4.384;2023-03-01T08:47:31;15.95;;;10.23;;
22634;SDS011;11484;50.858;4.384;2023-03-01T08:49:58;15.48;;;10.07;;
22634;SDS011;11484;50.858;4.384;2023-03-01T08:52:24;12.68;;;9.75;;
22634;SDS011;11484;50.858;4.384;2023-03-01T08:54:51;12.75;;;9.48;;
22634;SDS011;11484;50.858;4.384;2023-03-01T08:57:17;17.05;;;9.98;;
22634;SDS011;11484;50.858;4.384;2023-03-01T08:59:43;16.17;;;10.20;;
22634;SDS011;11484;50.858;4.384;2023-03-01T09:02:13;14.02;;;9.35;;
22634;SDS011;11484;50.858;4.384;2023-03-01T09:04:40;14.05;;;9.32;;
22634;SDS011;11484;50.858;4.384;2023-03-01T09:07:06;14.88;;;9.77;;
22634;SDS011;11484;50.858;4.384;2023-03-01T09:09:33;17.25;;;9.57;;
22634;SDS011;11484;50.858;4.384;2023-03-01T09:11:58;14.55;;;9.82;;
22634;SDS011;11484;50.858;4.384;2023-03-01T09:14:24;14.43;;;9.80;;
22634;SDS011;11484;50.858;4.384;2023-03-01T09:16:50;15.32;;;9.75;;
22634;SDS011;11484;50.858;4.384;2023-03-01T09:19:15;12.27;;;9.98;;
22634;SDS011;11484;50.858;4.384;2023-03-01T09:21:41;14.13;;;9.68;;
22634;SDS011;11484;50.858;4.384;2023-03-01T09:24:17;13.13;;;9.85;;
22634;SDS011;11484;50.858;4.384;2023-03-01T09:26:45;13.57;;;9.73;;
22634;SDS011;11484;50.858;4.384;2023-03-01T09:29:11;13.82;;;10.07;;
22634;SDS011;11484;50.858;4.384;2023-03-01T09:31:38;12.43;;;9.20;;
22634;SDS011;11484;50.858;4.384;2023-03-01T09:34:04;17.27;;;9.88;;
22634;SDS011;11484;50.858;4.384;2023-03-01T09:36:30;15.20;;;9.80;;
22634;SDS011;11484;50.858;4.384;2023-03-01T09:38:59;14.68;;;10.32;;
22634;SDS011;11484;50.858;4.384;2023-03-01T09:44:27;15.43;;;9.77;;
22634;SDS011;11484;50.858;4.384;2023-03-01T09:47:00;14.93;;;9.65;;
22634;SDS011;11484;50.858;4.384;2023-03-01T09:49:28;14.52;;;10.30;;
22634;SDS011;11484;50.858;4.384;2023-03-01T09:54:44;12.98;;;9.77;;
22634;SDS011;11484;50.858;4.384;2023-03-01T10:02:49;14.82;;;10.75;;
22634;SDS011;11484;50.858;4.384;2023-03-01T10:05:31;16.95;;;10.55;;
22634;SDS011;11484;50.858;4.384;2023-03-01T10:10:38;14.38;;;10.30;;
22634;SDS011;11484;50.858;4.384;2023-03-01T10:13:19;12.23;;;10.25;;
22634;SDS011;11484;50.858;4.384;2023-03-01T10:15:54;13.05;;;10.02;;
22634;SDS011;11484;50.858;4.384;2023-03-01T10:18:26;14.27;;;10.00;;
22634;SDS011;11484;50.858;4.384;2023-03-01T10:20:59;15.10;;;10.10;;
22634;SDS011;11484;50.858;4.384;2023-03-01T10:23:27;13.27;;;9.60;;
22634;SDS011;11484;50.858;4.384;2023-03-01T10:31:17;15.55;;;10.05;;
22634;SDS011;11484;50.858;4.384;2023-03-01T10:33:47;13.23;;;9.10;;
22634;SDS011;11484;50.858;4.384;2023-03-01T10:36:16;14.00;;;9.93;;
22634;SDS011;11484;50.858;4.384;2023-03-01T10:38:50;14.25;;;9.70;;
22634;SDS011;11484;50.858;4.384;2023-03-01T10:41:20;11.52;;;9.25;;
22634;SDS011;11484;50.858;4.384;2023-03-01T10:43:51;13.88;;;9.45;;
22634;SDS011;11484;50.858;4.384;2023-03-01T10:46:37;13.35;;;9.48;;
22634;SDS011;11484;50.858;4.384;2023-03-01T10:49:20;13.75;;;9.55;;
22634;SDS011;11484;50.858;4.384;2023-03-01T10:51:47;13.52;;;9.70;;
22634;SDS011;11484;50.858;4.384;2023-03-01T10:54:32;13.00;;;9.35;;
22634;SDS011;11484;50.858;4.384;2023-03-01T10:57:02;14.82;;;9.10;;
22634;SDS011;11484;50.858;4.384;2023-03-01T10:59:29;15.57;;;9.25;;
22634;SDS011;11484;50.858;4.384;2023-03-01T11:05:13;11.07;;;8.35;;
22634;SDS011;11484;50.858;4.384;2023-03-01T11:07:49;14.40;;;9.65;;
22634;SDS011;11484;50.858;4.384;2023-03-01T11:10:17;15.63;;;9.52;;
22634;SDS011;11484;50.858;4.384;2023-03-01T11:12:47;16.50;;;9.77;;
22634;SDS011;11484;50.858;4.384;2023-03-01T11:15:20;13.98;;;9.18;;
22634;SDS011;11484;50.858;4.384;2023-03-01T11:17:48;15.68;;;9.50;;
22634;SDS011;11484;50.858;4.384;2023-03-01T11:25:44;12.23;;;8.82;;
22634;SDS011;11484;50.858;4.384;2023-03-01T11:28:19;12.85;;;8.73;;
22634;SDS011;11484;50.858;4.384;2023-03-01T11:36:16;12.65;;;8.75;;
22634;SDS011;11484;50.858;4.384;2023-03-01T11:38:57;13.20;;;8.82;;
22634;SDS011;11484;50.858;4.384;2023-03-01T11:41:36;15.45;;;8.18;;
22634;SDS011;11484;50.858;4.384;2023-03-01T11:46:41;14.43;;;9.38;;
22634;SDS011;11484;50.858;4.384;2023-03-01T11:49:36;12.63;;;9.02;;
22634;SDS011;11484;50.858;4.384;2023-03-01T12:05:57;11.13;;;7.82;;
22634;SDS011;11484;50.858;4.384;2023-03-01T12:08:43;15.93;;;8.57;;
22634;SDS011;11484;50.858;4.384;2023-03-01T12:27:56;12.60;;;8.68;;
22634;SDS011;11484;50.858;4.384;2023-03-01T12:30:45;11.82;;;8.23;;
22634;SDS011;11484;50.858;4.384;2023-03-01T12:39:18;14.68;;;8.77;;
22634;SDS011;11484;50.858;4.384;2023-03-01T12:42:17;11.18;;;8.20;;
22634;SDS011;11484;50.858;4.384;2023-03-01T12:50:20;13.57;;;8.25;;
22634;SDS011;11484;50.858;4.384;2023-03-01T12:52:50;13.93;;;8.95;;
22634;SDS011;11484;50.858;4.384;2023-03-01T13:01:05;14.48;;;8.90;;
22634;SDS011;11484;50.858;4.384;2023-03-01T13:06:15;13.98;;;8.27;;
22634;SDS011;11484;50.858;4.384;2023-03-01T13:08:50;11.30;;;8.27;;
22634;SDS011;11484;50.858;4.384;2023-03-01T13:11:27;12.85;;;8.63;;
22634;SDS011;11484;50.858;4.384;2023-03-01T13:14:11;11.75;;;8.18;;
22634;SDS011;11484;50.858;4.384;2023-03-01T13:16:53;13.18;;;9.02;;
22634;SDS011;11484;50.858;4.384;2023-03-01T13:19:26;11.15;;;8.35;;
22634;SDS011;11484;50.858;4.384;2023-03-01T13:22:01;10.30;;;8.20;;
22634;SDS011;11484;50.858;4.384;2023-03-01T13:24:50;11.98;;;8.63;;
22634;SDS011;11484;50.858;4.384;2023-03-01T13:27:38;13.40;;;7.88;;
22634;SDS011;11484;50.858;4.384;2023-03-01T13:30:12;13.45;;;8.68;;
22634;SDS011;11484;50.858;4.384;2023-03-01T13:35:51;12.48;;;7.97;;
22634;SDS011;11484;50.858;4.384;2023-03-01T13:41:02;11.98;;;8.23;;
22634;SDS011;11484;50.858;4.384;2023-03-01T13:43:29;13.20;;;8.18;;
22634;SDS011;11484;50.858;4.384;2023-03-01T13:46:16;12.50;;;7.88;;
22634;SDS011;11484;50.858;4.384;2023-03-01T13:48:47;11.93;;;8.00;;
22634;SDS011;11484;50.858;4.384;2023-03-01T13:51:20;13.70;;;8.38;;
22634;SDS011;11484;50.858;4.384;2023-03-01T13:53:51;13.60;;;8.52;;
22634;SDS011;11484;50.858;4.384;2023-03-01T13:56:21;12.07;;;8.15;;
22634;SDS011;11484;50.858;4.384;2023-03-01T14:01:42;12.48;;;8.80;;
22634;SDS011;11484;50.858;4.384;2023-03-01T14:04:24;13.90;;;9.80;;
22634;SDS011;11484;50.858;4.384;2023-03-01T14:06:51;15.05;;;10.57;;
22634;SDS011;11484;50.858;4.384;2023-03-01T14:09:33;13.60;;;8.15;;
22634;SDS011;11484;50.858;4.384;2023-03-01T14:15:15;14.75;;;8.13;;
22634;SDS011;11484;50.858;4.384;2023-03-01T14:18:04;10.82;;;8.43;;
22634;SDS011;11484;50.858;4.384;2023-03-01T14:20:44;12.55;;;7.93;;
22634;SDS011;11484;50.858;4.384;2023-03-01T14:23:17;13.60;;;8.48;;
22634;SDS011;11484;50.858;4.384;2023-03-01T14:25:49;13.27;;;8.43;;
22634;SDS011;11484;50.858;4.384;2023-03-01T14:28:24;11.32;;;8.02;;
22634;SDS011;11484;50.858;4.384;2023-03-01T14:30:57;13.85;;;8.20;;
22634;SDS011;11484;50.858;4.384;2023-03-01T14:36:04;14.02;;;9.15;;
22634;SDS011;11484;50.858;4.384;2023-03-01T14:38:39;13.18;;;8.52;;
22634;SDS011;11484;50.858;4.384;2023-03-01T14:41:27;12.25;;;8.65;;
22634;SDS011;11484;50.858;4.384;2023-03-01T14:43:57;13.57;;;8.55;;
22634;SDS011;11484;50.858;4.384;2023-03-01T14:46:32;13.32;;;9.02;;
22634;SDS011;11484;50.858;4.384;2023-03-01T14:51:43;15.27;;;9.43;;
22634;SDS011;11484;50.858;4.384;2023-03-01T14:57:42;14.50;;;9.18;;
22634;SDS011;11484;50.858;4.384;2023-03-01T15:00:01;11.63;;;8.77;;
22634;SDS011;11484;50.858;4.384;2023-03-01T15:02:31;10.00;;;8.52;;
22634;SDS011;11484;50.858;4.384;2023-03-01T15:05:00;12.98;;;8.48;;
22634;SDS011;11484;50.858;4.384;2023-03-01T15:07:33;11.63;;;8.40;;
22634;SDS011;11484;50.858;4.384;2023-03-01T15:10:03;16.00;;;8.65;;
22634;SDS011;11484;50.858;4.384;2023-03-01T15:14:56;11.40;;;8.65;;
22634;SDS011;11484;50.858;4.384;2023-03-01T15:20:03;11.13;;;8.32;;
22634;SDS011;11484;50.858;4.384;2023-03-01T15:22:31;13.52;;;8.90;;
22634;SDS011;11484;50.858;4.384;2023-03-01T15:24:57;11.85;;;9.00;;
22634;SDS011;11484;50.858;4.384;2023-03-01T15:27:24;11.93;;;9.48;;
22634;SDS011;11484;50.858;4.384;2023-03-01T15:29:55;12.88;;;8.23;;
22634;SDS011;11484;50.858;4.384;2023-03-01T15:32:31;13.82;;;8.63;;
22634;SDS011;11484;50.858;4.384;2023-03-01T15:34:59;13.15;;;8.82;;
22634;SDS011;11484;50.858;4.384;2023-03-01T15:37:47;12.23;;;9.35;;
22634;SDS011;11484;50.858;4.384;2023-03-01T15:40:21;12.90;;;9.40;;
22634;SDS011;11484;50.858;4.384;2023-03-01T15:42:59;13.70;;;9.73;;
22634;SDS011;11484;50.858;4.384;2023-03-01T15:45:27;13.32;;;9.38;;
22634;SDS011;11484;50.858;4.384;2023-03-01T15:47:55;14.63;;;8.80;;
22634;SDS011;11484;50.858;4.384;2023-03-01T15:52:51;15.68;;;9.10;;
22634;SDS011;11484;50.858;4.384;2023-03-01T15:55:18;10.95;;;8.45;;
22634;SDS011;11484;50.858;4.384;2023-03-01T15:57:46;12.05;;;8.80;;
22634;SDS011;11484;50.858;4.384;2023-03-01T16:00:13;12.68;;;8.48;;
22634;SDS011;11484;50.858;4.384;2023-03-01T16:02:40;13.02;;;8.13;;
22634;SDS011;11484;50.858;4.384;2023-03-01T16:07:48;11.57;;;8.18;;
22634;SDS011;11484;50.858;4.384;2023-03-01T16:10:14;12.65;;;8.82;;
22634;SDS011;11484;50.858;4.384;2023-03-01T16:12:40;10.63;;;8.18;;
22634;SDS011;11484;50.858;4.384;2023-03-01T16:15:20;12.38;;;8.60;;
22634;SDS011;11484;50.858;4.384;2023-03-01T16:17:47;14.13;;;8.55;;
22634;SDS011;11484;50.858;4.384;2023-03-01T16:20:13;12.20;;;8.80;;
22634;SDS011;11484;50.858;4.384;2023-03-01T16:22:41;10.57;;;8.85;;
22634;SDS011;11484;50.858;4.384;2023-03-01T16:25:08;13.75;;;8.95;;
22634;SDS011;11484;50.858;4.384;2023-03-01T16:27:38;13.23;;;8.98;;
22634;SDS011;11484;50.858;4.384;2023-03-01T16:30:07;15.00;;;8.80;;
22634;SDS011;11484;50.858;4.384;2023-03-01T16:32:37;12.38;;;8.93;;
22634;SDS011;11484;50.858;4.384;2023-03-01T16:35:04;13.50;;;8.73;;
22634;SDS011;11484;50.858;4.384;2023-03-01T16:37:32;13.93;;;8.85;;
22634;SDS011;11484;50.858;4.384;2023-03-01T16:39:58;12.95;;;8.23;;
22634;SDS011;11484;50.858;4.384;2023-03-01T16:42:24;15.13;;;8.48;;
22634;SDS011;11484;50.858;4.384;2023-03-01T16:44:56;13.18;;;8.63;;
22634;SDS011;11484;50.858;4.384;2023-03-01T16:47:22;11.38;;;7.97;;
22634;SDS011;11484;50.858;4.384;2023-03-01T16:49:51;12.07;;;8.57;;
22634;SDS011;11484;50.858;4.384;2023-03-01T16:52:18;12.40;;;7.50;;
22634;SDS011;11484;50.858;4.384;2023-03-01T16:54:44;11.65;;;8.05;;
22634;SDS011;11484;50.858;4.384;2023-03-01T16:57:09;11.27;;;8.20;;
22634;SDS011;11484;50.858;4.384;2023-03-01T16:59:35;10.73;;;8.00;;
22634;SDS011;11484;50.858;4.384;2023-03-01T17:02:02;12.13;;;7.88;;